Time;durP1;ratioP1;P1;durP2;ratioP2;P2;SDS_P1;SDS_P2;PMS_P1;PMS_P2;Temp;Humidity;BMP_temperature;BMP_pressure;BME280_temperature;BME280_humidity;BME280_pressure;Samples;Min_cycle;Max_cycle;Signal;HPM_P1;HPM_P2
2023/09/04 00:01:12;;;;;;;3.23;2.93;;;21.30;74.80;;;;;;5048031;28;20910;-51
2023/09/04 00:03:40;;;;;;;3.63;3.20;;;21.20;74.70;;;;;;5026330;28;20466;-51
2023/09/04 00:06:09;;;;;;;3.80;3.50;;;21.30;74.80;;;;;;5052063;28;20788;-51
2023/09/04 00:08:39;;;;;;;3.30;3.00;;;21.30;74.70;;;;;;5027873;28;20545;-51
2023/09/04 00:11:07;;;;;;;3.40;3.10;;;21.30;74.70;;;;;;5027544;28;20859;-51
2023/09/04 00:13:36;;;;;;;3.43;3.13;;;21.30;74.70;;;;;;5036643;28;21086;-51
2023/09/04 00:16:05;;;;;;;4.20;3.80;;;21.30;74.60;;;;;;5058182;28;20760;-51
2023/09/04 00:18:34;;;;;;;3.40;2.93;;;21.30;74.60;;;;;;5028287;28;20477;-51
2023/09/04 00:21:03;;;;;;;3.70;3.40;;;21.30;74.40;;;;;;5012202;28;20819;-51
2023/09/04 00:23:31;;;;;;;3.33;3.03;;;21.30;74.40;;;;;;5028694;28;20443;-51
2023/09/04 00:26:01;;;;;;;3.30;3.00;;;21.30;74.40;;;;;;5026304;28;20451;-51
2023/09/04 00:28:30;;;;;;;3.90;3.60;;;21.30;74.40;;;;;;5011763;28;20470;-51
2023/09/04 00:30:58;;;;;;;3.83;3.50;;;21.20;74.20;;;;;;5043795;28;20853;-51
2023/09/04 00:33:27;;;;;;;4.10;3.70;;;21.20;74.30;;;;;;5027702;28;20470;-50
2023/09/04 00:35:55;;;;;;;3.57;3.27;;;21.30;74.40;;;;;;5053522;28;20957;-52
2023/09/04 00:38:24;;;;;;;3.63;3.33;;;21.30;74.40;;;;;;5013610;28;20985;-52
2023/09/04 00:40:53;;;;;;;3.60;3.30;;;21.30;74.30;;;;;;5024957;28;20443;-51
2023/09/04 00:43:23;;;;;;;3.90;3.50;;;21.20;74.30;;;;;;5056554;28;20448;-51
2023/09/04 00:45:52;;;;;;;3.50;3.20;;;21.20;74.10;;;;;;5048571;28;20440;-51
2023/09/04 00:48:20;;;;;;;3.30;3.00;;;21.20;74.10;;;;;;5039165;28;20470;-49
2023/09/04 00:50:49;;;;;;;4.23;3.83;;;21.20;74.10;;;;;;5055754;28;20977;-50
2023/09/04 00:53:18;;;;;;;3.50;3.20;;;21.20;74.10;;;;;;5026648;28;20553;-52
2023/09/04 00:55:48;;;;;;;3.30;3.00;;;21.20;74.10;;;;;;5023978;28;20435;-50
2023/09/04 00:58:17;;;;;;;3.10;2.80;;;21.20;74.00;;;;;;5054362;28;20852;-50
2023/09/04 01:00:47;;;;;;;3.73;3.43;;;21.20;74.10;;;;;;5023584;28;20450;-51
2023/09/04 01:03:16;;;;;;;2.90;2.67;;;21.20;75.20;;;;;;5026689;28;20512;-50
2023/09/04 01:05:45;;;;;;;4.03;3.47;;;21.20;74.00;;;;;;5056394;28;20948;-52
2023/09/04 01:08:14;;;;;;;3.67;3.37;;;21.20;74.00;;;;;;5025286;28;20566;-51
2023/09/04 01:10:51;;;;;;;3.60;3.30;;;21.20;74.00;;;;;;5024796;28;20436;-51
2023/09/04 01:13:25;;;;;;;3.33;3.03;;;21.20;73.90;;;;;;5059757;28;20887;-51
2023/09/04 01:15:55;;;;;;;3.20;3.00;;;21.20;74.00;;;;;;5021232;28;20456;-51
2023/09/04 01:18:24;;;;;;;3.13;2.83;;;21.20;74.10;;;;;;5060606;28;20451;-51
2023/09/04 01:21:04;;;;;;;3.53;3.23;;;21.20;74.00;;;;;;5035298;28;20591;-51
2023/09/04 01:23:33;;;;;;;3.27;2.97;;;21.20;73.80;;;;;;5054801;28;20535;-52
2023/09/04 01:26:09;;;;;;;3.27;2.97;;;21.20;73.90;;;;;;5058515;28;20515;-51
2023/09/04 01:28:49;;;;;;;3.30;3.00;;;21.20;73.90;;;;;;5053835;28;20828;-51
2023/09/04 01:31:24;;;;;;;3.47;3.17;;;21.20;73.70;;;;;;5035115;28;20534;-51
2023/09/04 01:33:58;;;;;;;3.90;3.20;;;21.20;73.80;;;;;;5023842;28;20474;-50
2023/09/04 01:36:31;;;;;;;3.30;3.00;;;21.20;73.80;;;;;;5056696;28;20481;-50
2023/09/04 01:39:00;;;;;;;2.97;2.67;;;21.20;73.70;;;;;;5011432;28;20467;-52
2023/09/04 01:41:28;;;;;;;3.30;3.00;;;21.20;73.80;;;;;;5056757;28;20527;-50
2023/09/04 01:43:57;;;;;;;3.77;3.47;;;21.20;73.70;;;;;;5049863;28;20451;-51
2023/09/04 01:46:26;;;;;;;4.50;3.23;;;21.20;73.70;;;;;;5057559;28;20569;-52
2023/09/04 01:48:54;;;;;;;3.23;2.93;;;21.20;73.60;;;;;;5056931;28;20917;-52
2023/09/04 01:51:23;;;;;;;3.50;3.20;;;21.20;73.60;;;;;;5023800;28;20794;-52
2023/09/04 01:53:53;;;;;;;3.80;2.83;;;21.20;73.60;;;;;;5001871;28;20818;-51
2023/09/04 01:56:21;;;;;;;3.27;2.97;;;21.20;73.70;;;;;;5054596;28;20473;-51
2023/09/04 01:58:50;;;;;;;3.23;3.03;;;21.10;73.60;;;;;;5020739;28;20456;-52
2023/09/04 02:01:19;;;;;;;3.93;3.57;;;21.10;73.50;;;;;;5040675;28;20476;-50
2023/09/04 02:03:54;;;;;;;3.17;2.87;;;21.20;73.60;;;;;;5022561;28;20438;-50
2023/09/04 02:06:23;;;;;;;3.07;2.77;;;21.10;73.50;;;;;;5043758;28;20506;-50
2023/09/04 02:08:57;;;;;;;4.00;3.33;;;21.10;73.50;;;;;;5056518;28;20981;-52
2023/09/04 02:11:29;;;;;;;3.70;3.37;;;21.10;73.60;;;;;;5025926;28;20964;-52
2023/09/04 02:13:58;;;;;;;3.40;3.10;;;21.10;73.60;;;;;;5020453;28;20459;-52
2023/09/04 02:16:27;;;;;;;2.90;2.60;;;21.10;73.50;;;;;;5055395;28;20439;-49
2023/09/04 02:18:56;;;;;;;3.40;2.87;;;21.10;73.50;;;;;;5014437;28;20497;-52
2023/09/04 02:21:25;;;;;;;3.27;2.97;;;21.10;73.50;;;;;;5022487;28;20455;-52
2023/09/04 02:23:53;;;;;;;3.20;2.90;;;21.10;73.50;;;;;;5051045;28;20531;-51
2023/09/04 02:26:23;;;;;;;4.13;3.63;;;21.10;73.50;;;;;;5026001;28;20813;-51
2023/09/04 02:28:51;;;;;;;4.20;3.80;;;21.10;73.40;;;;;;5022712;28;20479;-51
2023/09/04 02:31:21;;;;;;;3.37;3.07;;;21.10;73.30;;;;;;5015643;28;20861;-51
2023/09/04 02:33:50;;;;;;;2.97;2.70;;;21.10;73.40;;;;;;5034424;28;20472;-51
2023/09/04 02:36:18;;;;;;;4.00;3.60;;;21.10;73.20;;;;;;5012001;28;20455;-51
2023/09/04 02:38:47;;;;;;;3.40;2.97;;;21.10;73.30;;;;;;5056497;28;20467;-51
2023/09/04 02:41:16;;;;;;;3.43;3.13;;;21.10;73.30;;;;;;5024503;28;20489;-52
2023/09/04 02:43:45;;;;;;;2.90;2.70;;;21.10;73.30;;;;;;5056366;28;20486;-51
2023/09/04 02:46:14;;;;;;;3.60;3.30;;;21.10;73.30;;;;;;5050906;28;20462;-51
2023/09/04 02:48:43;;;;;;;3.73;3.43;;;21.10;73.40;;;;;;5053425;28;20517;-51
2023/09/04 02:51:11;;;;;;;3.60;3.30;;;21.10;73.30;;;;;;5045564;28;20467;-51
2023/09/04 02:53:40;;;;;;;2.93;2.70;;;21.10;73.30;;;;;;5056995;28;20459;-51
2023/09/04 02:56:08;;;;;;;3.17;2.87;;;21.10;73.20;;;;;;5056450;28;20440;-51
2023/09/04 02:58:37;;;;;;;2.90;2.70;;;21.10;73.30;;;;;;5020590;28;20467;-51
2023/09/04 03:01:06;;;;;;;3.70;3.40;;;21.00;73.20;;;;;;5051094;28;20445;-51
2023/09/04 03:03:36;;;;;;;3.70;3.20;;;21.00;73.10;;;;;;4998529;28;20447;-50
2023/09/04 03:06:09;;;;;;;3.90;2.83;;;21.00;73.20;;;;;;5045589;28;20441;-51
2023/09/04 03:08:38;;;;;;;3.13;2.83;;;21.00;73.10;;;;;;5051024;28;20507;-50
2023/09/04 03:11:10;;;;;;;3.03;2.83;;;21.00;73.10;;;;;;5050384;28;20471;-51
2023/09/04 03:13:39;;;;;;;3.23;2.93;;;21.00;73.30;;;;;;5007929;28;21039;-51
2023/09/04 03:16:09;;;;;;;3.10;2.80;;;21.00;73.10;;;;;;5055664;28;20432;-52
2023/09/04 03:18:38;;;;;;;3.07;2.77;;;21.00;73.20;;;;;;5049177;28;20451;-51
2023/09/04 03:21:07;;;;;;;2.73;2.53;;;21.00;73.10;;;;;;5052870;28;20516;-51
2023/09/04 03:23:36;;;;;;;2.53;2.33;;;21.00;73.10;;;;;;5019476;28;20447;-51
2023/09/04 03:26:05;;;;;;;3.00;2.60;;;21.00;73.20;;;;;;5045544;28;20455;-49
2023/09/04 03:28:34;;;;;;;3.83;3.53;;;21.00;73.20;;;;;;5021457;28;20462;-51
2023/09/04 03:31:04;;;;;;;3.37;3.13;;;21.00;73.10;;;;;;5040985;28;20539;-50
2023/09/04 03:33:34;;;;;;;2.67;2.47;;;21.00;73.10;;;;;;5021372;28;20459;-51
2023/09/04 03:36:04;;;;;;;3.23;2.93;;;21.00;73.10;;;;;;5050645;28;20444;-52
2023/09/04 03:38:33;;;;;;;3.13;2.80;;;21.00;73.10;;;;;;5020746;28;20984;-51
2023/09/04 03:41:01;;;;;;;3.60;2.73;;;21.00;73.00;;;;;;5051234;28;20447;-51
2023/09/04 03:43:30;;;;;;;2.90;2.70;;;21.00;73.00;;;;;;5023945;28;20991;-52
2023/09/04 03:45:58;;;;;;;3.23;2.93;;;21.00;73.00;;;;;;5013409;28;20472;-50
2023/09/04 03:48:27;;;;;;;3.57;3.03;;;21.00;73.00;;;;;;5017467;28;20555;-51
2023/09/04 03:51:02;;;;;;;3.30;2.77;;;21.00;73.00;;;;;;5014758;28;20499;-52
2023/09/04 03:53:30;;;;;;;2.60;2.40;;;21.00;72.90;;;;;;5023839;28;21025;-52
2023/09/04 03:56:06;;;;;;;3.30;3.00;;;20.90;72.80;;;;;;5044361;28;20499;-51
2023/09/04 03:58:34;;;;;;;3.50;3.20;;;21.00;73.00;;;;;;5023664;28;20500;-50
2023/09/04 04:01:04;;;;;;;3.60;2.80;;;20.90;72.80;;;;;;5043432;28;20844;-51
2023/09/04 04:03:33;;;;;;;3.30;3.00;;;20.90;72.80;;;;;;5017337;28;20533;-51
2023/09/04 04:06:13;;;;;;;3.03;2.73;;;20.90;72.70;;;;;;5049756;28;20491;-50
2023/09/04 04:08:41;;;;;;;3.33;3.03;;;20.90;72.80;;;;;;5022679;28;20532;-50
2023/09/04 04:11:10;;;;;;;2.87;2.67;;;20.90;72.80;;;;;;5043348;28;20800;-51
2023/09/04 04:13:39;;;;;;;2.50;2.30;;;20.90;74.00;;;;;;5020055;28;20997;-52
2023/09/04 04:16:11;;;;;;;2.90;2.67;;;20.90;72.80;;;;;;5009666;28;20957;-52
2023/09/04 04:18:40;;;;;;;3.13;2.83;;;20.90;72.70;;;;;;5048055;28;20980;-51
2023/09/04 04:21:10;;;;;;;3.27;3.03;;;20.90;72.70;;;;;;5044924;28;20439;-51
2023/09/04 04:23:39;;;;;;;3.20;2.90;;;20.90;72.60;;;;;;5055175;28;21529;-51
2023/09/04 04:26:08;;;;;;;3.33;3.03;;;20.90;72.70;;;;;;5053903;28;20502;-50
2023/09/04 04:28:36;;;;;;;2.97;2.77;;;20.90;72.60;;;;;;5020942;28;20448;-51
2023/09/04 04:31:05;;;;;;;2.90;2.57;;;20.90;72.70;;;;;;5047316;28;20448;-50
2023/09/04 04:33:33;;;;;;;3.47;2.93;;;20.90;72.70;;;;;;5050358;28;20435;-51
2023/09/04 04:36:03;;;;;;;3.60;3.30;;;20.90;72.70;;;;;;5044132;28;20556;-51
2023/09/04 04:38:33;;;;;;;2.90;2.70;;;20.90;72.60;;;;;;5023687;28;20490;-51
2023/09/04 04:41:02;;;;;;;3.27;2.97;;;20.90;72.60;;;;;;5053685;28;20436;-51
2023/09/04 04:43:31;;;;;;;2.80;2.60;;;20.90;72.70;;;;;;5010970;28;20551;-50
2023/09/04 04:46:01;;;;;;;3.03;2.73;;;20.90;72.70;;;;;;5050888;28;20972;-50
2023/09/04 04:48:30;;;;;;;3.47;3.17;;;20.80;72.60;;;;;;5021765;28;20531;-51
2023/09/04 04:50:58;;;;;;;2.87;2.57;;;20.90;72.60;;;;;;5023855;28;20623;-50
2023/09/04 04:53:28;;;;;;;2.90;2.70;;;20.90;72.70;;;;;;5051465;28;20483;-51
2023/09/04 04:56:00;;;;;;;3.17;2.87;;;20.80;72.60;;;;;;5012002;28;20554;-51
2023/09/04 04:58:28;;;;;;;3.57;3.07;;;20.80;72.50;;;;;;5016800;28;20472;-50
2023/09/04 05:00:57;;;;;;;3.13;2.83;;;20.80;72.60;;;;;;5006295;28;20456;-51
2023/09/04 05:03:26;;;;;;;3.60;3.00;;;20.90;72.60;;;;;;5054234;28;20460;-50
2023/09/04 05:05:55;;;;;;;3.30;3.10;;;20.80;72.50;;;;;;5044701;28;22447;-52
2023/09/04 05:08:24;;;;;;;2.67;2.47;;;20.80;72.60;;;;;;5046066;28;20479;-51
2023/09/04 05:11:02;;;;;;;2.90;2.57;;;20.80;72.30;;;;;;5024171;28;20435;-51
2023/09/04 05:13:32;;;;;;;3.50;3.20;;;20.80;72.10;;;;;;5013337;28;20468;-52
2023/09/04 05:16:04;;;;;;;3.00;2.70;;;20.80;72.20;;;;;;5011276;28;20465;-51
2023/09/04 05:18:36;;;;;;;4.00;3.60;;;20.70;72.20;;;;;;5015721;28;20517;-51
2023/09/04 05:21:06;;;;;;;3.03;2.77;;;20.70;72.00;;;;;;5060240;28;20843;-51
2023/09/04 05:23:35;;;;;;;3.23;3.03;;;20.70;72.10;;;;;;5049351;28;20452;-52
2023/09/04 05:26:05;;;;;;;2.77;2.50;;;20.70;72.10;;;;;;5031327;28;20436;-51
2023/09/04 05:28:34;;;;;;;3.57;3.27;;;20.70;72.40;;;;;;5049246;28;20499;-50
2023/09/04 05:31:04;;;;;;;3.33;3.03;;;20.70;71.90;;;;;;5055807;28;20888;-51
2023/09/04 05:33:32;;;;;;;4.10;3.07;;;20.70;72.10;;;;;;5025478;28;20531;-51
2023/09/04 05:36:01;;;;;;;3.50;3.20;;;20.60;71.60;;;;;;5052256;28;20481;-50
2023/09/04 05:38:29;;;;;;;2.83;2.63;;;20.60;71.60;;;;;;5022946;28;20520;-52
2023/09/04 05:40:59;;;;;;;2.83;2.57;;;20.60;72.10;;;;;;5052325;28;20443;-52
2023/09/04 05:43:28;;;;;;;3.53;2.83;;;20.60;72.10;;;;;;5055953;28;20459;-49
2023/09/04 05:45:57;;;;;;;2.83;2.63;;;20.60;72.10;;;;;;5020013;28;20454;-53
2023/09/04 05:48:26;;;;;;;3.43;2.80;;;20.60;71.90;;;;;;5040984;28;20547;-51
2023/09/04 05:50:54;;;;;;;2.90;2.70;;;20.60;72.00;;;;;;5021126;28;20452;-50
2023/09/04 05:53:24;;;;;;;3.20;2.73;;;20.60;72.10;;;;;;5049540;28;20459;-50
2023/09/04 05:56:10;;;;;;;3.10;2.80;;;20.70;72.10;;;;;;5050440;28;20727;-50
2023/09/04 05:58:46;;;;;;;3.03;2.80;;;20.60;72.10;;;;;;5035235;28;21058;-51
2023/09/04 06:01:15;;;;;;;3.30;3.00;;;20.60;72.10;;;;;;5046552;28;20448;-52
2023/09/04 06:03:45;;;;;;;2.63;2.43;;;20.60;72.00;;;;;;5053928;28;20436;-51
2023/09/04 06:06:15;;;;;;;2.60;2.40;;;20.60;72.00;;;;;;5038557;28;20458;-51
2023/09/04 06:08:45;;;;;;;3.30;3.00;;;20.60;72.00;;;;;;5053221;28;20498;-51
2023/09/04 06:11:13;;;;;;;3.07;2.77;;;20.60;72.10;;;;;;5055784;28;20432;-51
2023/09/04 06:13:42;;;;;;;3.20;2.90;;;20.60;72.00;;;;;;5024979;28;20438;-51
2023/09/04 06:16:14;;;;;;;3.47;3.17;;;20.60;72.00;;;;;;5053110;28;20564;-51
2023/09/04 06:18:42;;;;;;;2.80;2.57;;;20.60;71.90;;;;;;5020736;28;20470;-51
2023/09/04 06:21:11;;;;;;;2.70;2.50;;;20.60;72.10;;;;;;5018009;28;20554;-51
2023/09/04 06:23:39;;;;;;;3.37;3.07;;;20.60;72.10;;;;;;5051064;28;20527;-51
2023/09/04 06:26:09;;;;;;;3.40;3.10;;;20.60;72.10;;;;;;5017918;28;20441;-51
2023/09/04 06:28:37;;;;;;;3.03;2.72;;;20.60;72.10;;;;;;5044839;28;20445;-51
2023/09/04 06:31:06;;;;;;;3.90;2.63;;;20.60;72.50;;;;;;5050050;28;20240;-51
2023/09/04 06:33:37;;;;;;;2.87;2.67;;;20.50;72.20;;;;;;5055382;28;20443;-52
2023/09/04 06:36:07;;;;;;;5.83;3.33;;;20.50;72.30;;;;;;5015256;28;20546;-51
2023/09/04 06:38:35;;;;;;;3.07;2.80;;;20.60;72.30;;;;;;5003912;28;20827;-51
2023/09/04 06:41:04;;;;;;;3.73;2.97;;;20.60;72.40;;;;;;5054887;28;20438;-51
2023/09/04 06:43:33;;;;;;;4.40;3.07;;;20.50;72.10;;;;;;5015847;28;20997;-52
2023/09/04 06:46:02;;;;;;;3.47;3.17;;;20.60;72.30;;;;;;5042276;28;20977;-51
2023/09/04 06:48:31;;;;;;;3.20;2.90;;;20.50;72.20;;;;;;5013314;28;20467;-51
2023/09/04 06:51:02;;;;;;;3.30;3.10;;;20.60;72.50;;;;;;5047385;28;20460;-51
2023/09/04 06:53:31;;;;;;;3.13;2.83;;;20.60;72.40;;;;;;5056750;28;20459;-51
2023/09/04 06:55:59;;;;;;;3.07;2.77;;;20.60;72.40;;;;;;5032876;28;20459;-50
2023/09/04 06:58:28;;;;;;;3.57;3.27;;;20.60;72.40;;;;;;5043489;28;20481;-50
2023/09/04 07:00:57;;;;;;;2.80;2.60;;;20.60;72.40;;;;;;5010641;28;20463;-50
2023/09/04 07:03:25;;;;;;;3.20;2.70;;;20.60;72.50;;;;;;5052292;28;20893;-53
2023/09/04 07:05:54;;;;;;;3.30;3.00;;;20.60;72.50;;;;;;5017534;28;21944;-52
2023/09/04 07:08:24;;;;;;;2.90;2.60;;;20.60;72.50;;;;;;5051786;28;20474;-50
2023/09/04 07:10:53;;;;;;;3.73;3.00;;;20.60;72.50;;;;;;5020159;28;20448;-50
2023/09/04 07:13:22;;;;;;;3.03;2.73;;;20.60;72.80;;;;;;5050567;28;20459;-50
2023/09/04 07:15:51;;;;;;;3.17;2.87;;;20.60;72.80;;;;;;5047177;28;20472;-51
2023/09/04 07:18:19;;;;;;;3.00;2.63;;;20.60;72.70;;;;;;5056072;28;20463;-52
2023/09/04 07:20:48;;;;;;;3.60;3.30;;;20.60;72.60;;;;;;5018833;28;20451;-51
2023/09/04 07:23:18;;;;;;;3.80;3.47;;;20.60;72.60;;;;;;5048160;28;20559;-52
2023/09/04 07:25:54;;;;;;;4.87;3.17;;;20.60;72.70;;;;;;5020692;28;20431;-50
2023/09/04 07:28:23;;;;;;;3.40;3.10;;;20.60;72.60;;;;;;5056088;28;20545;-50
2023/09/04 07:30:55;;;;;;;3.10;2.80;;;20.60;72.60;;;;;;5030096;28;20542;-50
2023/09/04 07:33:23;;;;;;;3.23;2.93;;;20.60;72.60;;;;;;5054800;28;20475;-50
2023/09/04 07:35:55;;;;;;;3.30;2.80;;;20.60;72.60;;;;;;5053715;28;20889;-50
2023/09/04 07:38:24;;;;;;;3.57;3.27;;;20.60;72.70;;;;;;5042121;28;20470;-50
2023/09/04 07:41:01;;;;;;;3.20;2.97;;;20.60;73.00;;;;;;5049163;28;20443;-50
2023/09/04 07:43:31;;;;;;;3.63;3.30;;;20.60;72.70;;;;;;5014330;28;20457;-50
2023/09/04 07:46:00;;;;;;;2.80;2.60;;;20.60;72.60;;;;;;5038574;28;20440;-50
2023/09/04 07:48:29;;;;;;;3.50;3.20;;;20.60;72.70;;;;;;5056195;28;20467;-49
2023/09/04 07:50:58;;;;;;;4.40;4.00;;;20.60;72.70;;;;;;5014644;28;20543;-52
2023/09/04 07:53:26;;;;;;;3.43;3.10;;;20.60;72.70;;;;;;5024035;28;20487;-51
2023/09/04 07:55:55;;;;;;;3.40;2.63;;;20.60;72.70;;;;;;5019197;28;20543;-50
2023/09/04 07:58:25;;;;;;;3.17;2.87;;;20.60;72.80;;;;;;5045557;28;20467;-52
2023/09/04 08:00:54;;;;;;;2.60;2.40;;;20.60;72.80;;;;;;5029558;28;20447;-52
2023/09/04 08:03:23;;;;;;;3.03;2.60;;;20.60;72.90;;;;;;5054993;28;20995;-51
2023/09/04 08:05:52;;;;;;;2.60;2.40;;;20.60;73.00;;;;;;5049308;28;20523;-51
2023/09/04 08:08:21;;;;;;;3.00;2.77;;;20.60;73.10;;;;;;5047582;28;20565;-51
2023/09/04 08:10:51;;;;;;;4.40;3.77;;;20.60;73.20;;;;;;5014720;28;20434;-51
2023/09/04 08:13:20;;;;;;;3.10;2.80;;;20.60;73.10;;;;;;5035545;28;20479;-52
2023/09/04 08:15:50;;;;;;;3.73;3.43;;;20.60;73.20;;;;;;5047640;28;20442;-51
2023/09/04 08:18:18;;;;;;;3.20;2.90;;;20.60;73.40;;;;;;5049525;28;20827;-52
2023/09/04 08:20:48;;;;;;;2.63;2.37;;;20.60;73.20;;;;;;5055297;28;20551;-52
2023/09/04 08:23:16;;;;;;;3.27;2.97;;;20.60;73.20;;;;;;5024261;28;20463;-51
2023/09/04 08:25:45;;;;;;;2.87;2.67;;;20.60;73.20;;;;;;5054726;28;20451;-51
2023/09/04 08:28:13;;;;;;;3.70;2.80;;;20.60;73.20;;;;;;5054501;28;20514;-51
2023/09/04 08:30:42;;;;;;;3.20;2.90;;;20.60;73.30;;;;;;5036050;28;20444;-51
2023/09/04 08:33:12;;;;;;;3.10;2.80;;;20.60;73.50;;;;;;5018928;28;20526;-52
2023/09/04 08:35:40;;;;;;;3.23;2.93;;;20.60;73.40;;;;;;5058596;28;20447;-51
2023/09/04 08:38:09;;;;;;;2.87;2.57;;;20.60;73.40;;;;;;5037759;28;20464;-51
2023/09/04 08:40:41;;;;;;;3.27;2.60;;;20.60;73.50;;;;;;5025493;28;20446;-54
2023/09/04 08:43:11;;;;;;;3.63;3.20;;;20.60;73.40;;;;;;5019182;28;20466;-51
2023/09/04 08:45:40;;;;;;;3.37;3.07;;;20.60;73.40;;;;;;5053361;28;20454;-51
2023/09/04 08:48:14;;;;;;;4.20;3.60;;;20.60;73.40;;;;;;5036418;28;20575;-52
2023/09/04 08:50:43;;;;;;;3.20;2.90;;;20.60;73.50;;;;;;5023254;28;20854;-52
2023/09/04 08:53:11;;;;;;;2.30;2.10;;;20.60;73.40;;;;;;5052700;28;20843;-51
2023/09/04 08:55:40;;;;;;;2.90;2.67;;;20.60;73.30;;;;;;5018235;28;20843;-52
2023/09/04 08:58:09;;;;;;;3.80;3.30;;;20.60;73.50;;;;;;5017289;28;20495;-52
2023/09/04 09:00:38;;;;;;;3.30;2.90;;;20.60;73.50;;;;;;5009412;28;20986;-51
2023/09/04 09:03:07;;;;;;;3.17;2.87;;;20.60;73.50;;;;;;5030765;28;20878;-52
2023/09/04 09:05:39;;;;;;;2.53;2.33;;;20.60;73.50;;;;;;5017132;28;20475;-51
2023/09/04 09:08:08;;;;;;;5.07;3.30;;;20.60;73.50;;;;;;5047387;28;20558;-50
2023/09/04 09:10:37;;;;;;;2.67;2.47;;;20.60;73.50;;;;;;5047767;28;20531;-51
2023/09/04 09:13:06;;;;;;;2.93;2.70;;;20.60;74.70;;;;;;5055009;28;20454;-51
2023/09/04 09:15:34;;;;;;;3.43;3.13;;;20.60;73.50;;;;;;5021964;28;20474;-51
2023/09/04 09:18:03;;;;;;;2.83;2.53;;;20.60;73.50;;;;;;5021529;28;20468;-51
2023/09/04 09:20:33;;;;;;;3.40;3.10;;;20.60;73.50;;;;;;5020545;28;20455;-51
2023/09/04 09:23:05;;;;;;;3.40;3.10;;;20.60;73.60;;;;;;5018277;28;20992;-51
2023/09/04 09:25:33;;;;;;;2.93;2.63;;;20.60;73.60;;;;;;5020798;28;20535;-51
2023/09/04 09:28:04;;;;;;;2.77;2.57;;;20.60;73.60;;;;;;5051303;28;20506;-51
2023/09/04 09:30:36;;;;;;;3.10;2.60;;;20.60;73.60;;;;;;5018422;28;20453;-51
2023/09/04 09:33:07;;;;;;;2.80;2.60;;;20.60;73.50;;;;;;5036144;28;20551;-52
2023/09/04 09:35:40;;;;;;;3.20;2.90;;;20.60;73.60;;;;;;5053012;28;20953;-50
2023/09/04 09:38:16;;;;;;;3.30;2.80;;;20.60;73.60;;;;;;5036001;28;21017;-50
2023/09/04 09:40:45;;;;;;;3.97;2.80;;;20.60;73.70;;;;;;5023157;28;20462;-49
2023/09/04 09:43:14;;;;;;;3.03;2.73;;;20.60;73.60;;;;;;5051081;28;20468;-50
2023/09/04 09:45:42;;;;;;;7.80;2.80;;;20.60;73.70;;;;;;5019804;28;20440;-50
2023/09/04 09:48:13;;;;;;;2.70;2.50;;;20.60;73.60;;;;;;5053836;28;20492;-52
2023/09/04 09:50:42;;;;;;;2.97;2.70;;;20.60;73.70;;;;;;5021680;28;20881;-49
2023/09/04 09:53:11;;;;;;;3.83;3.17;;;20.60;73.80;;;;;;5052558;28;20983;-50
2023/09/04 09:55:41;;;;;;;3.17;2.90;;;20.60;73.80;;;;;;5054564;28;20428;-52
2023/09/04 09:58:10;;;;;;;2.87;2.60;;;20.60;73.80;;;;;;5020600;28;20471;-50
2023/09/04 10:00:40;;;;;;;2.80;2.60;;;20.60;75.10;;;;;;5049949;28;20426;-51
2023/09/04 10:03:08;;;;;;;3.00;2.70;;;20.60;73.90;;;;;;5052818;28;20903;-50
2023/09/04 10:05:39;;;;;;;3.40;3.10;;;20.60;73.80;;;;;;5014550;28;20494;-49
2023/09/04 10:08:10;;;;;;;2.53;2.33;;;20.60;73.80;;;;;;5043185;28;20471;-51
2023/09/04 10:10:43;;;;;;;3.53;2.77;;;20.60;73.90;;;;;;5026222;28;20929;-51
2023/09/04 10:13:20;;;;;;;3.37;2.80;;;20.60;73.80;;;;;;5015863;28;20504;-50
2023/09/04 10:15:52;;;;;;;3.00;2.80;;;20.60;73.90;;;;;;5013973;28;20867;-50
2023/09/04 10:18:27;;;;;;;3.27;2.60;;;20.60;73.90;;;;;;5011670;28;20488;-50
2023/09/04 10:20:58;;;;;;;2.90;2.70;;;20.60;73.90;;;;;;5044982;28;20831;-49
2023/09/04 10:23:33;;;;;;;2.57;2.37;;;20.60;73.90;;;;;;5016926;28;20476;-51
2023/09/04 10:26:08;;;;;;;3.30;3.00;;;20.60;73.90;;;;;;5050952;28;20463;-50
2023/09/04 10:28:40;;;;;;;3.03;2.40;;;20.60;73.90;;;;;;5024422;28;20467;-49
2023/09/04 10:31:13;;;;;;;2.60;2.40;;;20.60;73.90;;;;;;5014278;28;20444;-51
2023/09/04 10:33:42;;;;;;;2.77;2.57;;;20.60;73.90;;;;;;5011964;28;20522;-52
2023/09/04 10:36:11;;;;;;;3.13;2.77;;;20.60;73.80;;;;;;5049454;28;20515;-50
2023/09/04 10:38:41;;;;;;;3.00;2.70;;;20.60;73.80;;;;;;4998228;28;20472;-50
2023/09/04 10:41:15;;;;;;;2.87;2.67;;;20.60;73.90;;;;;;5019404;28;20431;-50
2023/09/04 10:43:45;;;;;;;2.83;2.63;;;20.60;73.70;;;;;;5048293;28;20446;-50
2023/09/04 10:46:15;;;;;;;3.23;2.53;;;20.60;73.80;;;;;;5020611;28;20448;-51
2023/09/04 10:48:45;;;;;;;3.10;2.77;;;20.60;73.90;;;;;;5039088;28;20518;-52
2023/09/04 10:51:31;;;;;;;2.60;2.40;;;20.60;73.90;;;;;;5041466;28;20448;-52
2023/09/04 10:54:01;;;;;;;3.73;2.60;;;20.60;73.70;;;;;;4996901;28;20443;-51
2023/09/04 10:56:56;;;;;;;3.33;3.00;;;20.60;73.90;;;;;;5051355;28;20432;-52
2023/09/04 10:59:25;;;;;;;2.50;2.03;;;20.70;73.90;;;;;;5017414;28;20478;-52
2023/09/04 11:01:54;;;;;;;2.80;2.57;;;20.60;73.80;;;;;;5017147;28;20455;-50
2023/09/04 11:04:45;;;;;;;3.20;2.40;;;20.60;73.90;;;;;;5052400;28;20953;-52
2023/09/04 11:07:32;;;;;;;2.60;2.40;;;20.60;73.70;;;;;;4990506;28;20558;-51
2023/09/04 11:10:33;;;;;;;3.03;2.83;;;20.60;73.70;;;;;;5016475;28;20455;-51
2023/09/04 11:13:04;;;;;;;2.90;2.60;;;20.60;73.60;;;;;;5011535;28;20479;-50
2023/09/04 11:15:35;;;;;;;3.07;2.77;;;20.60;73.50;;;;;;5047866;28;20451;-52
2023/09/04 11:18:13;;;;;;;2.93;2.63;;;20.70;73.50;;;;;;5046892;28;20480;-51
2023/09/04 11:20:48;;;;;;;3.30;2.87;;;20.70;73.60;;;;;;5043167;28;20542;-51
2023/09/04 11:23:18;;;;;;;2.80;2.50;;;20.70;73.70;;;;;;5048953;28;20494;-51
2023/09/04 11:25:47;;;;;;;3.77;3.00;;;20.60;73.60;;;;;;5038809;28;20479;-51
2023/09/04 11:28:19;;;;;;;2.80;2.60;;;20.70;73.80;;;;;;5053428;28;20555;-49
2023/09/04 11:30:48;;;;;;;3.03;2.73;;;20.70;73.70;;;;;;5010851;28;20480;-51
2023/09/04 11:33:16;;;;;;;2.33;2.13;;;20.70;73.70;;;;;;5049146;28;20468;-52
2023/09/04 11:35:45;;;;;;;3.30;3.00;;;20.70;73.80;;;;;;5016023;28;20447;-50
2023/09/04 11:38:24;;;;;;;3.00;2.73;;;20.70;73.80;;;;;;5040805;28;20494;-50
2023/09/04 11:40:53;;;;;;;2.53;2.33;;;20.70;73.70;;;;;;5013629;28;20467;-50
2023/09/04 11:43:23;;;;;;;2.90;2.70;;;20.70;73.70;;;;;;5014614;28;20490;-52
2023/09/04 11:45:55;;;;;;;2.47;2.27;;;20.70;73.70;;;;;;5015376;28;20453;-51
2023/09/04 11:48:24;;;;;;;2.83;2.60;;;20.70;73.70;;;;;;5045006;28;20467;-51
2023/09/04 11:50:54;;;;;;;3.30;3.00;;;20.70;73.70;;;;;;5014225;28;20444;-51
2023/09/04 11:53:23;;;;;;;2.70;2.50;;;20.70;73.60;;;;;;5022721;28;20467;-51
2023/09/04 11:55:53;;;;;;;2.73;2.50;;;20.70;73.60;;;;;;5041966;28;20513;-51
2023/09/04 11:58:23;;;;;;;2.67;2.47;;;20.70;73.70;;;;;;5057466;28;20471;-51
2023/09/04 12:00:52;;;;;;;3.40;2.50;;;20.80;73.40;;;;;;5035635;28;22021;-51
2023/09/04 12:03:20;;;;;;;3.27;2.97;;;20.80;73.10;;;;;;5055518;28;21001;-51
2023/09/04 12:05:51;;;;;;;3.93;2.13;;;20.80;73.20;;;;;;5053895;28;20446;-52
2023/09/04 12:08:20;;;;;;;3.70;3.30;;;20.80;73.30;;;;;;5055922;28;20559;-51
2023/09/04 12:10:50;;;;;;;2.90;2.60;;;20.80;73.30;;;;;;5055730;28;20860;-50
2023/09/04 12:13:19;;;;;;;3.13;2.83;;;20.80;73.40;;;;;;5055483;28;20467;-51
2023/09/04 12:15:49;;;;;;;2.70;2.50;;;20.80;73.40;;;;;;5018185;28;20471;-50
2023/09/04 12:18:21;;;;;;;2.50;2.30;;;20.80;73.40;;;;;;5041264;28;20490;-51
2023/09/04 12:20:51;;;;;;;3.27;2.80;;;20.80;73.60;;;;;;5018335;28;21307;-50
2023/09/04 12:23:19;;;;;;;3.15;2.85;;;20.80;74.00;;;;;;5037854;28;20452;-51
2023/09/04 12:25:48;;;;;;;3.33;2.37;;;20.90;73.20;;;;;;5022728;28;20723;-51
2023/09/04 12:28:18;;;;;;;2.70;2.50;;;20.90;73.10;;;;;;5055970;28;20503;-51
2023/09/04 12:30:47;;;;;;;3.53;2.90;;;20.90;73.10;;;;;;5011681;28;20444;-51
2023/09/04 12:33:21;;;;;;;8.57;2.90;;;20.90;72.80;;;;;;5037489;28;20488;-51
2023/09/04 12:35:56;;;;;;;3.53;3.10;;;21.10;72.10;;;;;;5040818;28;20436;-51
2023/09/04 12:38:25;;;;;;;3.40;3.10;;;21.10;72.10;;;;;;5044161;28;20928;-50
2023/09/04 12:40:53;;;;;;;3.77;3.07;;;21.00;72.00;;;;;;5012521;28;20434;-51
2023/09/04 12:43:22;;;;;;;3.10;2.80;;;21.00;72.30;;;;;;5044755;28;20479;-51
2023/09/04 12:45:50;;;;;;;3.30;3.00;;;21.00;72.20;;;;;;5045610;28;20494;-51
2023/09/04 12:48:21;;;;;;;3.13;2.93;;;21.00;72.50;;;;;;5046949;28;20467;-51
2023/09/04 12:50:51;;;;;;;3.40;3.07;;;21.00;72.60;;;;;;5027419;28;20499;-51
2023/09/04 12:53:19;;;;;;;3.33;3.03;;;20.90;72.60;;;;;;5045798;28;20476;-51
2023/09/04 12:55:48;;;;;;;3.43;3.07;;;20.90;72.80;;;;;;5045292;28;20531;-52
2023/09/04 12:58:17;;;;;;;3.40;3.20;;;20.90;72.80;;;;;;5045376;28;20491;-51
2023/09/04 13:00:45;;;;;;;3.03;2.83;;;20.90;72.90;;;;;;5046239;28;20484;-51
2023/09/04 13:03:14;;;;;;;2.90;2.70;;;20.90;73.00;;;;;;5044113;28;20550;-51